sensor_id;sensor_type;location;lat;lon;timestamp;pressure;altitude;pressure_sealevel;temperature;humidity
81393;BME280;71503;47.056;15.444;2023-07-16T00:01:52;97188.72;;;20.87;84.02
81393;BME280;71503;47.056;15.444;2023-07-16T00:04:18;97185.16;;;20.83;83.78
81393;BME280;71503;47.056;15.444;2023-07-16T00:06:45;97182.81;;;20.82;83.93
81393;BME280;71503;47.056;15.444;2023-07-16T00:09:11;97179.09;;;20.67;83.93
81393;BME280;71503;47.056;15.444;2023-07-16T00:11:37;97176.53;;;20.55;84.48
81393;BME280;71503;47.056;15.444;2023-07-16T00:14:03;97170.53;;;20.42;84.98
81393;BME280;71503;47.056;15.444;2023-07-16T00:16:29;97176.31;;;20.41;85.13
81393;BME280;71503;47.056;15.444;2023-07-16T00:18:55;97170.34;;;20.32;84.80
81393;BME280;71503;47.056;15.444;2023-07-16T00:21:21;97169.91;;;20.30;85.53
81393;BME280;71503;47.056;15.444;2023-07-16T00:23:47;97164.53;;;20.30;85.39
81393;BME280;71503;47.056;15.444;2023-07-16T00:26:13;97165.84;;;20.20;86.33
81393;BME280;71503;47.056;15.444;2023-07-16T00:28:39;97170.53;;;20.23;86.59
81393;BME280;71503;47.056;15.444;2023-07-16T00:31:05;97173.88;;;20.36;86.25
81393;BME280;71503;47.056;15.444;2023-07-16T00:33:31;97163.56;;;20.41;85.62
81393;BME280;71503;47.056;15.444;2023-07-16T00:35:57;97168.72;;;20.27;85.98
81393;BME280;71503;47.056;15.444;2023-07-16T00:38:23;97176.84;;;20.50;85.54
81393;BME280;71503;47.056;15.444;2023-07-16T00:40:49;97178.22;;;20.40;85.78
81393;BME280;71503;47.056;15.444;2023-07-16T00:43:15;97173.94;;;20.39;85.44
81393;BME280;71503;47.056;15.444;2023-07-16T00:45:41;97173.38;;;20.30;85.13
81393;BME280;71503;47.056;15.444;2023-07-16T00:48:10;97168.91;;;20.18;84.97
81393;BME280;71503;47.056;15.444;2023-07-16T00:50:38;97174.16;;;20.11;86.78
81393;BME280;71503;47.056;15.444;2023-07-16T00:53:08;97177.53;;;20.24;86.25
81393;BME280;71503;47.056;15.444;2023-07-16T00:55:38;97166.13;;;20.15;86.35
81393;BME280;71503;47.056;15.444;2023-07-16T00:58:06;97175.03;;;20.15;85.99
81393;BME280;71503;47.056;15.444;2023-07-16T01:00:36;97164.03;;;20.24;86.13
81393;BME280;71503;47.056;15.444;2023-07-16T01:03:05;97165.28;;;20.11;86.39
81393;BME280;71503;47.056;15.444;2023-07-16T01:05:59;97164.31;;;20.00;86.53
81393;BME280;71503;47.056;15.444;2023-07-16T01:08:42;97156.84;;;19.93;87.12
81393;BME280;71503;47.056;15.444;2023-07-16T01:11:14;97159.09;;;20.10;87.00
81393;BME280;71503;47.056;15.444;2023-07-16T01:13:41;97155.03;;;20.01;87.39
81393;BME280;71503;47.056;15.444;2023-07-16T01:16:20;97155.63;;;20.10;86.83
81393;BME280;71503;47.056;15.444;2023-07-16T01:18:48;97152.63;;;19.96;87.51
81393;BME280;71503;47.056;15.444;2023-07-16T01:21:15;97154.75;;;19.87;86.98
81393;BME280;71503;47.056;15.444;2023-07-16T01:29:45;97128.13;;;19.85;87.60
81393;BME280;71503;47.056;15.444;2023-07-16T01:32:17;97144.63;;;19.80;88.40
81393;BME280;71503;47.056;15.444;2023-07-16T01:34:43;97141.75;;;19.73;88.35
81393;BME280;71503;47.056;15.444;2023-07-16T01:37:10;97136.94;;;19.82;87.93
81393;BME280;71503;47.056;15.444;2023-07-16T01:39:36;97137.00;;;19.67;88.05
81393;BME280;71503;47.056;15.444;2023-07-16T01:42:03;97135.72;;;19.80;88.35
81393;BME280;71503;47.056;15.444;2023-07-16T01:44:29;97131.25;;;19.68;87.94
81393;BME280;71503;47.056;15.444;2023-07-16T01:47:13;97128.22;;;19.70;88.46
81393;BME280;71503;47.056;15.444;2023-07-16T01:49:40;97119.53;;;19.80;87.91
81393;BME280;71503;47.056;15.444;2023-07-16T01:52:08;97117.75;;;19.68;88.39
81393;BME280;71503;47.056;15.444;2023-07-16T01:54:35;97125.56;;;19.73;88.45
81393;BME280;71503;47.056;15.444;2023-07-16T01:57:01;97116.22;;;19.67;88.26
81393;BME280;71503;47.056;15.444;2023-07-16T01:59:28;97120.13;;;19.70;88.26
81393;BME280;71503;47.056;15.444;2023-07-16T02:01:54;97109.81;;;19.56;88.02
81393;BME280;71503;47.056;15.444;2023-07-16T02:04:20;97105.84;;;19.69;88.54
81393;BME280;71503;47.056;15.444;2023-07-16T02:06:46;97117.13;;;19.75;88.21
81393;BME280;71503;47.056;15.444;2023-07-16T02:09:14;97112.72;;;19.86;87.84
81393;BME280;71503;47.056;15.444;2023-07-16T02:11:39;97113.34;;;19.60;88.62
81393;BME280;71503;47.056;15.444;2023-07-16T02:14:05;97110.84;;;19.51;88.88
81393;BME280;71503;47.056;15.444;2023-07-16T02:16:31;97116.97;;;19.48;88.96
81393;BME280;71503;47.056;15.444;2023-07-16T02:18:57;97117.97;;;19.40;89.18
81393;BME280;71503;47.056;15.444;2023-07-16T02:21:23;97123.91;;;19.49;89.21
81393;BME280;71503;47.056;15.444;2023-07-16T02:23:49;97118.03;;;19.44;89.09
81393;BME280;71503;47.056;15.444;2023-07-16T02:26:15;97119.69;;;19.48;89.25
81393;BME280;71503;47.056;15.444;2023-07-16T02:28:41;97118.56;;;19.34;89.77
81393;BME280;71503;47.056;15.444;2023-07-16T02:31:06;97121.94;;;19.31;89.13
81393;BME280;71503;47.056;15.444;2023-07-16T02:33:32;97112.38;;;19.33;89.48
81393;BME280;71503;47.056;15.444;2023-07-16T02:35:58;97116.19;;;19.48;88.95
81393;BME280;71503;47.056;15.444;2023-07-16T02:38:27;97116.91;;;19.45;88.93
81393;BME280;71503;47.056;15.444;2023-07-16T02:40:53;97119.34;;;19.34;89.75
81393;BME280;71503;47.056;15.444;2023-07-16T02:43:19;97121.41;;;19.41;89.30
81393;BME280;71503;47.056;15.444;2023-07-16T02:45:45;97119.63;;;19.29;89.00
81393;BME280;71503;47.056;15.444;2023-07-16T02:48:11;97115.25;;;19.25;89.66
81393;BME280;71503;47.056;15.444;2023-07-16T02:50:37;97113.25;;;19.22;89.65
81393;BME280;71503;47.056;15.444;2023-07-16T02:53:07;97113.53;;;19.17;89.82
81393;BME280;71503;47.056;15.444;2023-07-16T02:55:34;97110.34;;;19.11;90.16
81393;BME280;71503;47.056;15.444;2023-07-16T02:58:01;97115.28;;;19.09;90.45
81393;BME280;71503;47.056;15.444;2023-07-16T03:00:32;97114.97;;;19.30;89.98
81393;BME280;71503;47.056;15.444;2023-07-16T03:03:00;97114.66;;;19.31;89.18
81393;BME280;71503;47.056;15.444;2023-07-16T03:05:28;97120.31;;;19.26;89.58
81393;BME280;71503;47.056;15.444;2023-07-16T03:07:54;97118.50;;;19.15;89.79
81393;BME280;71503;47.056;15.444;2023-07-16T03:10:22;97123.38;;;19.09;90.07
81393;BME280;71503;47.056;15.444;2023-07-16T03:12:48;97127.38;;;19.15;89.81
81393;BME280;71503;47.056;15.444;2023-07-16T03:15:15;97127.19;;;19.08;89.42
81393;BME280;71503;47.056;15.444;2023-07-16T03:17:40;97130.88;;;19.16;89.35
81393;BME280;71503;47.056;15.444;2023-07-16T03:20:07;97129.47;;;19.06;89.26
81393;BME280;71503;47.056;15.444;2023-07-16T03:22:33;97137.47;;;19.02;89.93
81393;BME280;71503;47.056;15.444;2023-07-16T03:24:59;97133.72;;;19.23;89.68
81393;BME280;71503;47.056;15.444;2023-07-16T03:27:25;97134.59;;;19.11;89.12
81393;BME280;71503;47.056;15.444;2023-07-16T03:29:51;97132.09;;;19.02;89.76
81393;BME280;71503;47.056;15.444;2023-07-16T03:32:17;97133.22;;;19.01;89.80
81393;BME280;71503;47.056;15.444;2023-07-16T03:34:43;97129.38;;;19.18;89.42
81393;BME280;71503;47.056;15.444;2023-07-16T03:37:09;97130.25;;;19.07;88.68
81393;BME280;71503;47.056;15.444;2023-07-16T03:39:35;97141.47;;;19.09;89.96
81393;BME280;71503;47.056;15.444;2023-07-16T03:42:00;97145.47;;;19.15;88.96
81393;BME280;71503;47.056;15.444;2023-07-16T03:44:26;97144.06;;;19.21;88.99
81393;BME280;71503;47.056;15.444;2023-07-16T03:46:52;97145.94;;;19.36;88.64
81393;BME280;71503;47.056;15.444;2023-07-16T03:49:18;97145.72;;;19.25;88.58
81393;BME280;71503;47.056;15.444;2023-07-16T03:51:44;97144.59;;;19.26;88.60
81393;BME280;71503;47.056;15.444;2023-07-16T03:54:10;97148.41;;;19.25;88.94
81393;BME280;71503;47.056;15.444;2023-07-16T03:56:36;97144.66;;;19.30;88.65
81393;BME280;71503;47.056;15.444;2023-07-16T03:59:02;97145.53;;;19.34;88.61
81393;BME280;71503;47.056;15.444;2023-07-16T04:01:27;97153.94;;;19.32;87.89
81393;BME280;71503;47.056;15.444;2023-07-16T04:03:53;97153.19;;;19.32;88.54
81393;BME280;71503;47.056;15.444;2023-07-16T04:06:19;97161.69;;;19.34;88.47
81393;BME280;71503;47.056;15.444;2023-07-16T04:08:45;97164.47;;;19.37;87.78
81393;BME280;71503;47.056;15.444;2023-07-16T04:11:11;97166.38;;;19.52;87.51
81393;BME280;71503;47.056;15.444;2023-07-16T04:13:37;97171.16;;;19.59;87.17
81393;BME280;71503;47.056;15.444;2023-07-16T04:16:03;97173.50;;;19.60;86.59
81393;BME280;71503;47.056;15.444;2023-07-16T04:18:30;97177.91;;;19.69;86.73
81393;BME280;71503;47.056;15.444;2023-07-16T04:20:55;97181.03;;;19.90;85.76
81393;BME280;71503;47.056;15.444;2023-07-16T04:23:22;97184.03;;;20.04;84.67
81393;BME280;71503;47.056;15.444;2023-07-16T04:25:52;97190.63;;;20.06;84.50
81393;BME280;71503;47.056;15.444;2023-07-16T04:28:19;97184.81;;;20.24;83.66
81393;BME280;71503;47.056;15.444;2023-07-16T04:30:45;97205.03;;;20.30;82.74
81393;BME280;71503;47.056;15.444;2023-07-16T04:33:10;97205.56;;;20.39;81.58
81393;BME280;71503;47.056;15.444;2023-07-16T04:35:36;97218.03;;;20.43;82.04
81393;BME280;71503;47.056;15.444;2023-07-16T04:38:02;97215.38;;;20.47;81.58
81393;BME280;71503;47.056;15.444;2023-07-16T04:40:31;97215.16;;;20.55;81.12
81393;BME280;71503;47.056;15.444;2023-07-16T04:42:57;97213.16;;;20.52;81.34
81393;BME280;71503;47.056;15.444;2023-07-16T04:45:23;97215.00;;;20.67;80.63
81393;BME280;71503;47.056;15.444;2023-07-16T04:47:49;97211.00;;;20.81;79.45
81393;BME280;71503;47.056;15.444;2023-07-16T04:50:15;97211.97;;;20.92;79.63
81393;BME280;71503;47.056;15.444;2023-07-16T04:52:41;97221.16;;;20.87;78.63
81393;BME280;71503;47.056;15.444;2023-07-16T04:55:07;97225.47;;;20.92;78.65
81393;BME280;71503;47.056;15.444;2023-07-16T04:57:33;97228.72;;;21.01;77.38
81393;BME280;71503;47.056;15.444;2023-07-16T04:59:59;97235.41;;;21.07;77.50
81393;BME280;71503;47.056;15.444;2023-07-16T05:02:25;97243.97;;;21.09;77.49
81393;BME280;71503;47.056;15.444;2023-07-16T05:04:51;97252.06;;;21.31;77.89
81393;BME280;71503;47.056;15.444;2023-07-16T05:07:17;97251.09;;;21.43;77.55
81393;BME280;71503;47.056;15.444;2023-07-16T05:09:43;97250.22;;;21.39;76.67
81393;BME280;71503;47.056;15.444;2023-07-16T05:12:09;97251.66;;;21.56;76.14
81393;BME280;71503;47.056;15.444;2023-07-16T05:14:44;97262.47;;;21.56;75.89
81393;BME280;71503;47.056;15.444;2023-07-16T05:17:12;97265.56;;;21.80;75.22
81393;BME280;71503;47.056;15.444;2023-07-16T05:19:38;97273.59;;;22.00;74.40
81393;BME280;71503;47.056;15.444;2023-07-16T05:22:04;97277.25;;;21.84;74.49
81393;BME280;71503;47.056;15.444;2023-07-16T05:24:31;97273.84;;;21.87;74.71
81393;BME280;71503;47.056;15.444;2023-07-16T05:26:57;97285.47;;;21.91;74.09
81393;BME280;71503;47.056;15.444;2023-07-16T05:29:23;97296.00;;;22.23;73.32
81393;BME280;71503;47.056;15.444;2023-07-16T05:31:49;97308.34;;;22.20;73.52
81393;BME280;71503;47.056;15.444;2023-07-16T05:34:15;97310.09;;;22.35;72.66
81393;BME280;71503;47.056;15.444;2023-07-16T05:36:42;97311.53;;;22.59;71.72
81393;BME280;71503;47.056;15.444;2023-07-16T05:39:11;97323.53;;;22.88;72.34
81393;BME280;71503;47.056;15.444;2023-07-16T05:41:40;97312.13;;;23.08;70.90
81393;BME280;71503;47.056;15.444;2023-07-16T05:44:07;97318.91;;;22.92;70.56
81393;BME280;71503;47.056;15.444;2023-07-16T05:46:34;97310.78;;;23.29;69.87
81393;BME280;71503;47.056;15.444;2023-07-16T05:49:00;97315.31;;;23.58;68.96
81393;BME280;71503;47.056;15.444;2023-07-16T05:51:26;97324.22;;;23.55;69.11
81393;BME280;71503;47.056;15.444;2023-07-16T05:53:51;97321.75;;;23.43;68.33
81393;BME280;71503;47.056;15.444;2023-07-16T05:56:17;97320.34;;;23.59;67.46
81393;BME280;71503;47.056;15.444;2023-07-16T05:58:43;97328.69;;;23.37;68.19
81393;BME280;71503;47.056;15.444;2023-07-16T06:01:09;97340.66;;;23.76;67.87
81393;BME280;71503;47.056;15.444;2023-07-16T06:03:35;97345.00;;;23.84;67.61
81393;BME280;71503;47.056;15.444;2023-07-16T06:06:01;97339.28;;;23.96;66.74
81393;BME280;71503;47.056;15.444;2023-07-16T06:08:28;97347.63;;;24.21;66.89
81393;BME280;71503;47.056;15.444;2023-07-16T06:10:54;97349.28;;;24.40;65.61
81393;BME280;71503;47.056;15.444;2023-07-16T06:13:20;97352.84;;;24.51;66.18
81393;BME280;71503;47.056;15.444;2023-07-16T06:15:49;97354.47;;;24.66;64.48
81393;BME280;71503;47.056;15.444;2023-07-16T06:18:15;97361.66;;;24.30;65.95
81393;BME280;71503;47.056;15.444;2023-07-16T06:20:45;97356.34;;;24.55;65.53
81393;BME280;71503;47.056;15.444;2023-07-16T06:23:14;97364.00;;;25.14;64.48
81393;BME280;71503;47.056;15.444;2023-07-16T06:25:42;97366.00;;;25.42;63.06
81393;BME280;71503;47.056;15.444;2023-07-16T06:28:12;97369.19;;;25.62;64.44
81393;BME280;71503;47.056;15.444;2023-07-16T06:30:38;97376.19;;;25.59;62.27
81393;BME280;71503;47.056;15.444;2023-07-16T06:33:04;97373.47;;;25.80;62.88
81393;BME280;71503;47.056;15.444;2023-07-16T06:35:30;97372.69;;;26.15;62.23
81393;BME280;71503;47.056;15.444;2023-07-16T06:37:56;97376.56;;;25.93;61.98
81393;BME280;71503;47.056;15.444;2023-07-16T06:40:23;97378.16;;;26.19;60.44
81393;BME280;71503;47.056;15.444;2023-07-16T06:42:49;97378.91;;;26.23;59.41
81393;BME280;71503;47.056;15.444;2023-07-16T06:45:16;97382.78;;;26.46;59.95
81393;BME280;71503;47.056;15.444;2023-07-16T06:47:42;97386.59;;;26.88;58.95
81393;BME280;71503;47.056;15.444;2023-07-16T06:50:09;97394.41;;;26.65;56.38
81393;BME280;71503;47.056;15.444;2023-07-16T06:52:35;97397.72;;;27.25;57.67
81393;BME280;71503;47.056;15.444;2023-07-16T06:55:01;97387.50;;;27.36;55.24
81393;BME280;71503;47.056;15.444;2023-07-16T06:57:27;97391.28;;;27.60;55.74
81393;BME280;71503;47.056;15.444;2023-07-16T06:59:53;97387.97;;;27.86;54.86
81393;BME280;71503;47.056;15.444;2023-07-16T07:02:19;97392.72;;;27.75;50.21
81393;BME280;71503;47.056;15.444;2023-07-16T07:04:45;97394.81;;;28.12;51.37
81393;BME280;71503;47.056;15.444;2023-07-16T07:07:11;97397.31;;;28.40;48.47
81393;BME280;71503;47.056;15.444;2023-07-16T07:09:37;97393.69;;;28.50;46.30
81393;BME280;71503;47.056;15.444;2023-07-16T07:12:03;97390.41;;;28.25;47.19
81393;BME280;71503;47.056;15.444;2023-07-16T07:14:29;97398.25;;;28.23;46.06
81393;BME280;71503;47.056;15.444;2023-07-16T07:16:55;97410.00;;;28.16;44.67
81393;BME280;71503;47.056;15.444;2023-07-16T07:19:21;97400.94;;;28.67;47.32
81393;BME280;71503;47.056;15.444;2023-07-16T07:21:47;97413.13;;;28.63;43.23
81393;BME280;71503;47.056;15.444;2023-07-16T07:24:13;97416.53;;;28.70;42.54
81393;BME280;71503;47.056;15.444;2023-07-16T07:26:39;97414.47;;;28.81;42.95
81393;BME280;71503;47.056;15.444;2023-07-16T07:29:05;97420.94;;;28.64;42.79
81393;BME280;71503;47.056;15.444;2023-07-16T07:31:31;97418.69;;;28.89;42.11
81393;BME280;71503;47.056;15.444;2023-07-16T07:33:57;97423.59;;;28.71;41.25
81393;BME280;71503;47.056;15.444;2023-07-16T07:36:24;97430.88;;;28.44;42.63
81393;BME280;71503;47.056;15.444;2023-07-16T07:38:50;97428.03;;;28.92;42.86
81393;BME280;71503;47.056;15.444;2023-07-16T07:41:16;97435.84;;;29.58;41.13
81393;BME280;71503;47.056;15.444;2023-07-16T07:43:43;97440.31;;;30.01;41.80
81393;BME280;71503;47.056;15.444;2023-07-16T07:46:08;97433.13;;;30.11;38.83
81393;BME280;71503;47.056;15.444;2023-07-16T07:48:35;97443.19;;;29.94;39.47
81393;BME280;71503;47.056;15.444;2023-07-16T07:51:01;97445.81;;;30.01;41.10
81393;BME280;71503;47.056;15.444;2023-07-16T07:53:27;97442.97;;;29.82;39.59
81393;BME280;71503;47.056;15.444;2023-07-16T07:55:54;97442.56;;;29.83;37.98
81393;BME280;71503;47.056;15.444;2023-07-16T07:58:20;97450.78;;;29.83;37.04
81393;BME280;71503;47.056;15.444;2023-07-16T08:00:46;97443.88;;;29.98;37.35
81393;BME280;71503;47.056;15.444;2023-07-16T08:03:11;97440.94;;;30.36;36.96
81393;BME280;71503;47.056;15.444;2023-07-16T08:05:37;97448.28;;;30.19;38.87
81393;BME280;71503;47.056;15.444;2023-07-16T08:08:04;97451.47;;;30.84;38.72
81393;BME280;71503;47.056;15.444;2023-07-16T08:10:30;97458.41;;;30.68;40.62
81393;BME280;71503;47.056;15.444;2023-07-16T08:12:55;97454.63;;;30.82;38.34
81393;BME280;71503;47.056;15.444;2023-07-16T08:15:21;97465.91;;;30.88;37.01
81393;BME280;71503;47.056;15.444;2023-07-16T08:17:47;97473.50;;;31.03;38.40
81393;BME280;71503;47.056;15.444;2023-07-16T08:20:14;97471.44;;;31.27;37.41
81393;BME280;71503;47.056;15.444;2023-07-16T08:22:40;97465.16;;;31.07;37.39
81393;BME280;71503;47.056;15.444;2023-07-16T08:25:07;97473.22;;;31.57;37.64
81393;BME280;71503;47.056;15.444;2023-07-16T08:27:34;97470.19;;;31.51;37.39
81393;BME280;71503;47.056;15.444;2023-07-16T08:30:00;97478.97;;;31.43;37.81
81393;BME280;71503;47.056;15.444;2023-07-16T08:32:26;97484.91;;;31.61;35.72
81393;BME280;71503;47.056;15.444;2023-07-16T08:34:52;97482.66;;;31.56;37.98
81393;BME280;71503;47.056;15.444;2023-07-16T08:37:18;97487.75;;;30.52;37.33
81393;BME280;71503;47.056;15.444;2023-07-16T08:39:44;97487.88;;;31.50;38.80
81393;BME280;71503;47.056;15.444;2023-07-16T08:42:10;97495.84;;;32.00;36.00
81393;BME280;71503;47.056;15.444;2023-07-16T08:44:37;97498.78;;;32.09;38.35
81393;BME280;71503;47.056;15.444;2023-07-16T08:47:06;97496.31;;;32.31;36.29
81393;BME280;71503;47.056;15.444;2023-07-16T08:49:33;97496.88;;;31.31;38.29
81393;BME280;71503;47.056;15.444;2023-07-16T08:52:01;97504.13;;;32.16;36.32
81393;BME280;71503;47.056;15.444;2023-07-16T08:54:28;97494.06;;;32.74;38.09
81393;BME280;71503;47.056;15.444;2023-07-16T08:56:54;97494.47;;;32.73;36.53
81393;BME280;71503;47.056;15.444;2023-07-16T08:59:23;97500.19;;;32.94;36.24
81393;BME280;71503;47.056;15.444;2023-07-16T09:01:50;97501.91;;;32.60;34.43
81393;BME280;71503;47.056;15.444;2023-07-16T09:04:16;97513.09;;;32.69;34.01
81393;BME280;71503;47.056;15.444;2023-07-16T09:06:43;97514.38;;;32.80;37.03
81393;BME280;71503;47.056;15.444;2023-07-16T09:09:22;97518.19;;;33.15;35.42
81393;BME280;71503;47.056;15.444;2023-07-16T09:11:49;97515.47;;;32.99;35.34
81393;BME280;71503;47.056;15.444;2023-07-16T09:14:20;97521.56;;;33.07;34.25
81393;BME280;71503;47.056;15.444;2023-07-16T09:16:53;97526.75;;;32.88;34.71
81393;BME280;71503;47.056;15.444;2023-07-16T09:19:19;97520.13;;;33.31;36.78
81393;BME280;71503;47.056;15.444;2023-07-16T09:21:49;97516.75;;;33.52;35.21
81393;BME280;71503;47.056;15.444;2023-07-16T09:24:18;97513.97;;;33.39;34.03
81393;BME280;71503;47.056;15.444;2023-07-16T09:26:55;97524.16;;;32.97;35.31
81393;BME280;71503;47.056;15.444;2023-07-16T09:29:21;97520.91;;;32.70;34.79
81393;BME280;71503;47.056;15.444;2023-07-16T09:34:20;97524.06;;;31.49;37.04
81393;BME280;71503;47.056;15.444;2023-07-16T09:36:49;97528.88;;;32.00;40.10
81393;BME280;71503;47.056;15.444;2023-07-16T09:39:17;97523.34;;;33.42;37.63
81393;BME280;71503;47.056;15.444;2023-07-16T09:41:48;97522.63;;;33.25;34.79
81393;BME280;71503;47.056;15.444;2023-07-16T09:44:15;97531.13;;;33.18;35.69
81393;BME280;71503;47.056;15.444;2023-07-16T09:46:42;97528.34;;;33.18;32.81
81393;BME280;71503;47.056;15.444;2023-07-16T09:49:09;97527.47;;;33.21;33.91
81393;BME280;71503;47.056;15.444;2023-07-16T09:51:37;97528.63;;;33.65;33.95
81393;BME280;71503;47.056;15.444;2023-07-16T09:54:04;97525.53;;;33.34;34.39
81393;BME280;71503;47.056;15.444;2023-07-16T09:56:41;97521.28;;;34.25;35.10
81393;BME280;71503;47.056;15.444;2023-07-16T09:59:13;97519.81;;;34.71;32.35
81393;BME280;71503;47.056;15.444;2023-07-16T10:01:40;97518.72;;;34.56;32.76
81393;BME280;71503;47.056;15.444;2023-07-16T10:04:15;97524.59;;;34.33;32.19
81393;BME280;71503;47.056;15.444;2023-07-16T10:06:59;97530.13;;;34.45;31.79
81393;BME280;71503;47.056;15.444;2023-07-16T10:09:50;97530.81;;;32.35;33.56
81393;BME280;71503;47.056;15.444;2023-07-16T10:12:18;97528.56;;;31.95;34.53
81393;BME280;71503;47.056;15.444;2023-07-16T10:14:53;97521.03;;;32.67;34.12
81393;BME280;71503;47.056;15.444;2023-07-16T10:17:24;97517.31;;;34.26;34.46
81393;BME280;71503;47.056;15.444;2023-07-16T10:22:36;97518.16;;;32.70;34.38
81393;BME280;71503;47.056;15.444;2023-07-16T10:25:25;97513.72;;;33.05;33.75
81393;BME280;71503;47.056;15.444;2023-07-16T10:27:51;97516.72;;;34.44;32.74
81393;BME280;71503;47.056;15.444;2023-07-16T10:30:18;97510.72;;;35.39;30.41
81393;BME280;71503;47.056;15.444;2023-07-16T10:32:45;97506.03;;;35.27;31.91
81393;BME280;71503;47.056;15.444;2023-07-16T10:35:12;97502.94;;;34.31;34.07
81393;BME280;71503;47.056;15.444;2023-07-16T10:37:39;97514.16;;;33.74;32.82
81393;BME280;71503;47.056;15.444;2023-07-16T10:40:11;97513.06;;;33.59;36.01
81393;BME280;71503;47.056;15.444;2023-07-16T10:42:39;97505.16;;;34.49;34.59
81393;BME280;71503;47.056;15.444;2023-07-16T10:45:07;97503.31;;;34.08;33.15
81393;BME280;71503;47.056;15.444;2023-07-16T10:47:35;97505.78;;;35.00;30.98
81393;BME280;71503;47.056;15.444;2023-07-16T10:50:08;97508.75;;;34.71;33.74
81393;BME280;71503;47.056;15.444;2023-07-16T10:52:35;97510.88;;;34.04;33.59
81393;BME280;71503;47.056;15.444;2023-07-16T10:55:02;97504.22;;;33.64;34.76
81393;BME280;71503;47.056;15.444;2023-07-16T10:57:28;97512.03;;;32.79;35.72
81393;BME280;71503;47.056;15.444;2023-07-16T10:59:56;97509.88;;;33.98;33.53
81393;BME280;71503;47.056;15.444;2023-07-16T11:02:23;97504.41;;;35.82;34.91
81393;BME280;71503;47.056;15.444;2023-07-16T11:04:50;97508.94;;;35.67;32.61
81393;BME280;71503;47.056;15.444;2023-07-16T11:07:21;97510.13;;;35.44;29.99
81393;BME280;71503;47.056;15.444;2023-07-16T11:09:52;97512.50;;;36.38;29.71
81393;BME280;71503;47.056;15.444;2023-07-16T11:12:21;97509.88;;;36.43;31.18
81393;BME280;71503;47.056;15.444;2023-07-16T11:14:55;97512.97;;;36.36;30.59
81393;BME280;71503;47.056;15.444;2023-07-16T11:17:24;97511.97;;;36.88;29.15
81393;BME280;71503;47.056;15.444;2023-07-16T11:19:51;97507.25;;;36.31;33.48
81393;BME280;71503;47.056;15.444;2023-07-16T11:22:18;97506.00;;;37.17;30.99
81393;BME280;71503;47.056;15.444;2023-07-16T11:24:50;97510.69;;;36.53;29.31
81393;BME280;71503;47.056;15.444;2023-07-16T11:27:21;97508.63;;;37.03;30.57
81393;BME280;71503;47.056;15.444;2023-07-16T11:29:49;97508.31;;;35.07;30.88
81393;BME280;71503;47.056;15.444;2023-07-16T11:32:34;97514.00;;;36.88;30.69
81393;BME280;71503;47.056;15.444;2023-07-16T11:35:05;97509.72;;;36.38;30.21
81393;BME280;71503;47.056;15.444;2023-07-16T11:37:33;97506.13;;;36.19;29.98
81393;BME280;71503;47.056;15.444;2023-07-16T11:40:05;97507.06;;;37.38;29.52
81393;BME280;71503;47.056;15.444;2023-07-16T11:42:33;97509.16;;;36.12;32.91
81393;BME280;71503;47.056;15.444;2023-07-16T11:45:00;97505.91;;;36.54;30.06
81393;BME280;71503;47.056;15.444;2023-07-16T11:47:27;97502.00;;;36.42;28.65
81393;BME280;71503;47.056;15.444;2023-07-16T11:49:54;97501.97;;;36.82;29.86
81393;BME280;71503;47.056;15.444;2023-07-16T11:52:22;97511.41;;;34.49;31.64
81393;BME280;71503;47.056;15.444;2023-07-16T11:54:49;97507.91;;;33.98;33.85
81393;BME280;71503;47.056;15.444;2023-07-16T11:57:15;97505.81;;;34.87;32.41
81393;BME280;71503;47.056;15.444;2023-07-16T11:59:42;97510.59;;;34.87;30.91
81393;BME280;71503;47.056;15.444;2023-07-16T12:02:08;97513.81;;;32.05;36.75
81393;BME280;71503;47.056;15.444;2023-07-16T12:04:34;97513.66;;;33.91;34.80
81393;BME280;71503;47.056;15.444;2023-07-16T12:07:00;97510.78;;;34.33;34.06
81393;BME280;71503;47.056;15.444;2023-07-16T12:09:26;97524.44;;;34.74;33.75
81393;BME280;71503;47.056;15.444;2023-07-16T12:11:52;97526.91;;;36.24;31.91
81393;BME280;71503;47.056;15.444;2023-07-16T12:14:18;97523.88;;;36.31;30.46
81393;BME280;71503;47.056;15.444;2023-07-16T12:16:44;97520.91;;;35.95;30.70
81393;BME280;71503;47.056;15.444;2023-07-16T12:19:11;97532.00;;;36.83;30.67
81393;BME280;71503;47.056;15.444;2023-07-16T12:21:37;97526.00;;;36.85;28.86
81393;BME280;71503;47.056;15.444;2023-07-16T12:24:03;97524.13;;;37.73;26.50
81393;BME280;71503;47.056;15.444;2023-07-16T12:26:29;97521.38;;;35.62;29.08
81393;BME280;71503;47.056;15.444;2023-07-16T12:28:55;97517.44;;;37.97;27.63
81393;BME280;71503;47.056;15.444;2023-07-16T12:31:21;97518.19;;;37.02;28.72
81393;BME280;71503;47.056;15.444;2023-07-16T12:33:47;97506.22;;;36.56;29.01
81393;BME280;71503;47.056;15.444;2023-07-16T12:36:14;97511.84;;;37.10;30.23
81393;BME280;71503;47.056;15.444;2023-07-16T12:38:41;97514.38;;;38.37;29.39
81393;BME280;71503;47.056;15.444;2023-07-16T12:41:07;97510.78;;;38.13;26.31
81393;BME280;71503;47.056;15.444;2023-07-16T12:43:34;97505.50;;;38.95;27.04
81393;BME280;71503;47.056;15.444;2023-07-16T12:46:03;97510.44;;;39.15;26.21
81393;BME280;71503;47.056;15.444;2023-07-16T12:48:31;97510.50;;;38.91;26.69
81393;BME280;71503;47.056;15.444;2023-07-16T12:50:57;97512.28;;;39.18;25.03
81393;BME280;71503;47.056;15.444;2023-07-16T12:53:24;97514.50;;;38.43;27.26
81393;BME280;71503;47.056;15.444;2023-07-16T12:55:51;97514.94;;;37.39;29.88
81393;BME280;71503;47.056;15.444;2023-07-16T12:58:18;97513.03;;;35.19;31.38
81393;BME280;71503;47.056;15.444;2023-07-16T13:00:44;97527.88;;;34.65;32.64
81393;BME280;71503;47.056;15.444;2023-07-16T13:03:10;97521.72;;;35.08;33.59